Time;durP1;ratioP1;P1;durP2;ratioP2;P2;SDS_P1;SDS_P2;PMS_P1;PMS_P2;Temp;Humidity;BMP_temperature;BMP_pressure;BME280_temperature;BME280_humidity;BME280_pressure;Samples;Min_cycle;Max_cycle;Signal;HPM_P1;HPM_P2
2022/10/29 00:02:05;;;;;;;;;;;;;;;19.97;52.96;96463.31;10539068;28;1975;-49
2022/10/29 00:07:05;;;;;;;;;;;;;;;19.96;52.80;96467.00;10537848;28;1571;-52
2022/10/29 00:12:05;;;;;;;;;;;;;;;19.96;52.82;96483.56;10539525;28;1380;-52
2022/10/29 00:17:06;;;;;;;;;;;;;;;19.96;52.90;96480.94;10537307;28;1792;-51
2022/10/29 00:22:06;;;;;;;;;;;;;;;19.96;52.64;96467.78;10535390;28;1971;-51
2022/10/29 00:27:06;;;;;;;;;;;;;;;19.95;52.93;96462.75;10529706;28;1631;-50
2022/10/29 00:32:08;;;;;;;;;;;;;;;19.96;52.92;96461.72;10534074;28;1105;-52
2022/10/29 00:37:09;;;;;;;;;;;;;;;19.96;52.94;96473.06;10534116;28;1658;-55
2022/10/29 00:42:12;;;;;;;;;;;;;;;19.95;52.76;96468.81;10535690;28;1878;-51
2022/10/29 00:47:20;;;;;;;;;;;;;;;19.95;52.98;96466.19;10534420;28;1691;-53
2022/10/29 00:52:24;;;;;;;;;;;;;;;19.96;52.91;96470.41;10534147;28;805;-47
2022/10/29 00:57:27;;;;;;;;;;;;;;;19.96;52.91;96464.34;10531970;28;1694;-53
2022/10/29 01:02:27;;;;;;;;;;;;;;;19.96;52.71;96474.88;10533589;28;1909;-50
2022/10/29 01:07:27;;;;;;;;;;;;;;;19.96;52.98;96480.16;10537903;28;1651;-53
2022/10/29 01:12:47;;;;;;;;;;;;;;;19.96;52.83;96474.88;10531528;28;1556;-48
2022/10/29 01:17:48;;;;;;;;;;;;;;;19.97;52.77;96487.00;10535871;28;1910;-50
2022/10/29 01:23:03;;;;;;;;;;;;;;;19.97;52.79;96489.63;10531458;28;1480;-49
2022/10/29 01:28:03;;;;;;;;;;;;;;;19.96;52.97;96493.31;10512950;28;1490;-52
2022/10/29 01:33:09;;;;;;;;;;;;;;;19.96;52.99;96493.31;10540088;28;1163;-53
2022/10/29 01:38:10;;;;;;;;;;;;;;;19.95;52.79;96486.44;10541355;28;1914;-49
2022/10/29 01:43:14;;;;;;;;;;;;;;;19.96;52.89;96474.88;10544334;28;1082;-51
2022/10/29 01:48:17;;;;;;;;;;;;;;;19.96;52.79;96480.16;10540513;28;1682;-49
2022/10/29 01:53:18;;;;;;;;;;;;;;;19.94;52.82;96472.50;10537464;28;1592;-49
2022/10/29 01:58:18;;;;;;;;;;;;;;;19.96;53.01;96480.16;10539935;28;1890;-53
2022/10/29 02:03:24;;;;;;;;;;;;;;;19.95;52.80;96473.28;10540676;28;1124;-53
2022/10/29 02:08:44;;;;;;;;;;;;;;;19.95;53.00;96473.28;10539143;28;1647;-52
2022/10/29 02:13:45;;;;;;;;;;;;;;;19.96;52.78;96467.00;10535447;28;1670;-54
2022/10/29 02:18:46;;;;;;;;;;;;;;;19.95;52.76;96462.75;10540151;28;1906;-51
2022/10/29 02:23:46;;;;;;;;;;;;;;;19.95;52.86;96468.03;10535813;28;1724;-51
2022/10/29 02:28:46;;;;;;;;;;;;;;;19.94;52.56;96472.50;10542941;28;1496;-52
2022/10/29 02:33:47;;;;;;;;;;;;;;;19.94;52.96;96466.44;10539361;28;1025;-52
2022/10/29 02:38:47;;;;;;;;;;;;;;;19.93;52.64;96468.28;10531706;28;1917;-52
2022/10/29 02:43:47;;;;;;;;;;;;;;;19.94;52.66;96455.91;10539090;28;1147;-52
2022/10/29 02:48:47;;;;;;;;;;;;;;;19.94;52.76;96461.19;10532702;28;1675;-52
2022/10/29 02:53:48;;;;;;;;;;;;;;;19.93;52.67;96449.84;10539112;28;1124;-52
2022/10/29 02:58:48;;;;;;;;;;;;;;;19.94;52.59;96434.88;10529509;28;1972;-51
2022/10/29 03:03:48;;;;;;;;;;;;;;;19.93;52.77;96439.34;10538765;28;1143;-53
2022/10/29 03:08:49;;;;;;;;;;;;;;;19.92;52.75;96450.13;10531406;28;1647;-51
2022/10/29 03:13:49;;;;;;;;;;;;;;;19.93;52.69;96446.44;10538734;28;1112;-53
2022/10/29 03:18:49;;;;;;;;;;;;;;;19.94;52.64;96443.56;10534075;28;1971;-52
2022/10/29 03:23:49;;;;;;;;;;;;;;;19.92;52.64;96437.75;10538436;28;967;-51
2022/10/29 03:28:50;;;;;;;;;;;;;;;19.93;52.70;96441.16;10529076;28;1717;-52
2022/10/29 03:33:50;;;;;;;;;;;;;;;19.94;52.50;96443.56;10538752;28;1084;-48
2022/10/29 03:38:50;;;;;;;;;;;;;;;19.91;52.73;96451.16;10536307;28;1910;-51
2022/10/29 03:43:50;;;;;;;;;;;;;;;19.92;52.79;96448.28;10532511;28;1865;-51
2022/10/29 03:48:51;;;;;;;;;;;;;;;19.92;52.78;96442.22;10533658;28;1132;-52
2022/10/29 03:53:51;;;;;;;;;;;;;;;19.92;52.59;96437.75;10535037;28;1627;-53
2022/10/29 03:58:51;;;;;;;;;;;;;;;19.93;52.41;96441.97;10535718;28;1910;-53
2022/10/29 04:03:52;;;;;;;;;;;;;;;19.91;52.72;96438.78;10536809;28;1076;-50
2022/10/29 04:08:53;;;;;;;;;;;;;;;19.92;52.64;96437.75;10537189;28;1584;-50
2022/10/29 04:13:53;;;;;;;;;;;;;;;19.92;52.72;96439.59;10535013;28;1647;-52
2022/10/29 04:18:54;;;;;;;;;;;;;;;19.90;52.45;96437.22;10536691;28;1918;-53
2022/10/29 04:23:54;;;;;;;;;;;;;;;19.92;52.49;96444.84;10533723;28;1635;-51
2022/10/29 04:28:54;;;;;;;;;;;;;;;19.92;52.59;96452.75;10528914;28;1473;-51
2022/10/29 04:33:54;;;;;;;;;;;;;;;19.90;52.59;96445.13;10536112;28;1115;-54
2022/10/29 04:38:55;;;;;;;;;;;;;;;19.91;52.57;96435.38;10533437;28;1969;-48
2022/10/29 04:43:55;;;;;;;;;;;;;;;19.91;52.52;96430.91;10538068;28;924;-52
2022/10/29 04:48:55;;;;;;;;;;;;;;;19.91;52.49;96430.91;10531736;28;1793;-52
2022/10/29 04:53:56;;;;;;;;;;;;;;;19.91;52.57;96427.47;10539911;28;1686;-51
2022/10/29 04:58:56;;;;;;;;;;;;;;;19.91;52.56;96424.84;10531955;28;1907;-52
2022/10/29 05:03:56;;;;;;;;;;;;;;;19.91;52.58;96419.56;10534066;28;1091;-54
2022/10/29 05:08:57;;;;;;;;;;;;;;;19.91;52.38;96419.56;10533363;28;1642;-51
2022/10/29 05:13:57;;;;;;;;;;;;;;;19.91;52.60;96424.84;10542895;28;1084;-51
2022/10/29 05:18:57;;;;;;;;;;;;;;;19.90;52.36;96428.53;10541508;28;1894;-51
2022/10/29 05:23:57;;;;;;;;;;;;;;;19.91;52.53;96432.72;10540262;28;1576;-51
2022/10/29 05:28:58;;;;;;;;;;;;;;;19.90;52.53;96441.69;10533604;28;1433;-48
2022/10/29 05:33:58;;;;;;;;;;;;;;;19.90;52.50;96441.69;10542739;28;1151;-52
2022/10/29 05:38:58;;;;;;;;;;;;;;;19.89;52.35;96427.72;10534736;28;1981;-55
2022/10/29 05:43:58;;;;;;;;;;;;;;;19.91;52.16;96430.09;10543564;28;1077;-50
2022/10/29 05:48:59;;;;;;;;;;;;;;;19.91;52.45;96424.84;10540274;28;1623;-56
2022/10/29 05:53:59;;;;;;;;;;;;;;;19.91;52.48;96424.84;10539524;28;1666;-53
2022/10/29 05:58:59;;;;;;;;;;;;;;;19.91;52.26;96436.16;10539627;28;1905;-51
2022/10/29 06:04:00;;;;;;;;;;;;;;;19.90;52.26;96428.53;10541807;28;1064;-52
2022/10/29 06:09:00;;;;;;;;;;;;;;;19.90;52.37;96449.56;10540040;28;1706;-52
2022/10/29 06:14:00;;;;;;;;;;;;;;;19.90;52.33;96460.09;10535245;28;1627;-51
2022/10/29 06:19:01;;;;;;;;;;;;;;;19.90;52.48;96455.63;10540236;28;1914;-51
2022/10/29 06:24:01;;;;;;;;;;;;;;;19.91;52.45;96441.44;10537135;28;1671;-50
2022/10/29 06:29:02;;;;;;;;;;;;;;;19.90;52.30;96445.13;10533954;28;1465;-51
2022/10/29 06:34:02;;;;;;;;;;;;;;;19.90;52.38;96454.84;10539668;28;1084;-49
2022/10/29 06:39:02;;;;;;;;;;;;;;;19.90;52.47;96462.72;10538218;28;1910;-51
2022/10/29 06:44:03;;;;;;;;;;;;;;;19.88;52.51;96476.16;10539144;28;916;-51
2022/10/29 06:49:03;;;;;;;;;;;;;;;19.89;52.51;96467.19;10535531;28;1703;-51
2022/10/29 06:54:03;;;;;;;;;;;;;;;19.88;52.37;96468.25;10537866;28;1702;-51
2022/10/29 06:59:03;;;;;;;;;;;;;;;19.89;52.08;96480.34;10537816;28;1955;-52
2022/10/29 07:04:04;;;;;;;;;;;;;;;19.89;52.29;96469.03;10538839;28;1127;-50
2022/10/29 07:09:04;;;;;;;;;;;;;;;19.90;52.27;96460.09;10535541;28;1623;-51
2022/10/29 07:14:07;;;;;;;;;;;;;;;19.89;52.21;96469.81;10535492;28;1659;-50
2022/10/29 07:19:07;;;;;;;;;;;;;;;19.88;52.58;96463.00;10538044;28;1894;-51
2022/10/29 07:24:07;;;;;;;;;;;;;;;19.89;52.28;96469.03;10533494;28;1592;-52
2022/10/29 07:29:08;;;;;;;;;;;;;;;19.88;52.52;96473.53;10528823;28;1432;-51
2022/10/29 07:34:08;;;;;;;;;;;;;;;19.91;52.43;96482.72;10537486;28;981;-51
2022/10/29 07:39:08;;;;;;;;;;;;;;;19.90;52.56;96487.22;10533197;28;1971;-47
2022/10/29 07:44:09;;;;;;;;;;;;;;;19.90;52.19;96479.31;10537854;28;882;-50
2022/10/29 07:49:10;;;;;;;;;;;;;;;19.90;52.33;96479.31;10528685;28;1686;-50
2022/10/29 07:54:10;;;;;;;;;;;;;;;19.89;52.32;96482.97;10535737;28;1681;-52
2022/10/29 07:59:13;;;;;;;;;;;;;;;19.89;52.49;96477.72;10535310;28;1901;-51
2022/10/29 08:04:13;;;;;;;;;;;;;;;19.89;52.38;96474.28;10536191;28;1080;-49
2022/10/29 08:09:13;;;;;;;;;;;;;;;19.89;52.57;96479.56;10535213;28;1623;-47
2022/10/29 08:14:20;;;;;;;;;;;;;;;19.88;52.21;96481.41;10530972;28;1702;-49
2022/10/29 08:19:20;;;;;;;;;;;;;;;19.87;52.38;96474.53;10535696;28;1971;-50
2022/10/29 08:24:20;;;;;;;;;;;;;;;19.88;52.35;96477.97;10534711;28;1690;-50
2022/10/29 08:29:20;;;;;;;;;;;;;;;19.88;52.39;96480.59;10528888;28;1540;-53
2022/10/29 08:34:21;;;;;;;;;;;;;;;19.87;52.51;96466.66;10535657;28;1145;-51
2022/10/29 08:39:21;;;;;;;;;;;;;;;19.87;52.51;96466.66;10533619;28;1914;-53
2022/10/29 08:44:43;;;;;;;;;;;;;;;19.87;52.41;96460.59;10532909;28;1555;-51
2022/10/29 08:49:49;;;;;;;;;;;;;;;19.87;52.26;96463.22;10533283;28;1191;-52
2022/10/29 08:54:51;;;;;;;;;;;;;;;19.87;52.56;96466.66;10532454;28;1623;-52
2022/10/29 09:00:03;;;;;;;;;;;;;;;19.88;52.45;96465.63;10538414;28;1955;-54
2022/10/29 09:05:04;;;;;;;;;;;;;;;19.88;52.42;96467.44;10535596;28;1684;-50
2022/10/29 09:10:16;;;;;;;;;;;;;;;19.87;52.52;96474.53;10533587;28;910;-53
2022/10/29 09:15:21;;;;;;;;;;;;;;;19.89;52.32;96475.09;10531540;28;1817;-52
2022/10/29 09:20:40;;;;;;;;;;;;;;;19.89;52.65;96479.56;10525003;28;1898;-51
2022/10/29 09:25:54;;;;;;;;;;;;;;;19.90;52.30;96471.44;10531321;28;1650;-51
2022/10/29 09:31:00;;;;;;;;;;;;;;;19.93;52.24;96476.16;10523105;28;1603;-50
2022/10/29 09:36:00;;;;;;;;;;;;;;;19.94;52.48;96469.88;10533360;28;1485;-52
2022/10/29 09:41:00;;;;;;;;;;;;;;;19.94;52.14;96469.06;10535947;28;1969;-48
2022/10/29 09:46:36;;;;;;;;;;;;;;;19.95;52.41;96470.66;10528764;28;1655;-50
2022/10/29 09:51:39;;;;;;;;;;;;;;;19.99;52.15;96474.41;10476862;28;1774;-50
2022/10/29 09:56:43;;;;;;;;;;;;;;;19.97;52.21;96469.34;10540312;28;1559;-49
2022/10/29 10:01:45;;;;;;;;;;;;;;;19.99;52.35;96464.63;10539550;28;1974;-52
2022/10/29 10:07:01;;;;;;;;;;;;;;;20.02;52.48;96447.56;10546474;28;1655;-50
2022/10/29 10:12:01;;;;;;;;;;;;;;;20.01;52.42;96441.50;10541215;28;1155;-51
2022/10/29 10:17:02;;;;;;;;;;;;;;;20.03;52.51;96444.66;10534394;28;1670;-52
2022/10/29 10:22:07;;;;;;;;;;;;;;;20.04;52.51;96440.19;10538986;28;2450;-51
2022/10/29 10:27:27;;;;;;;;;;;;;;;20.05;52.75;96433.91;10525515;28;1608;-50
2022/10/29 10:32:27;;;;;;;;;;;;;;;20.06;52.61;96422.31;10533236;28;1527;-48
2022/10/29 10:37:29;;;;;;;;;;;;;;;20.07;52.82;96424.69;10535317;28;1702;-51
2022/10/29 10:42:33;;;;;;;;;;;;;;;20.08;52.66;96422.84;10538420;28;1909;-51
2022/10/29 10:47:34;;;;;;;;;;;;;;;20.09;52.69;96419.19;10534202;28;1611;-49
2022/10/29 10:52:34;;;;;;;;;;;;;;;20.10;52.76;96407.59;10538508;28;1156;-49
2022/10/29 10:57:35;;;;;;;;;;;;;;;20.10;52.78;96403.13;10526236;28;1532;-49
2022/10/29 11:02:47;;;;;;;;;;;;;;;20.12;52.83;96395.78;10538577;28;1983;-48
2022/10/29 11:07:53;;;;;;;;;;;;;;;20.13;52.83;96394.72;10536056;28;1656;-48
2022/10/29 11:12:54;;;;;;;;;;;;;;;20.14;52.91;96392.88;10537194;28;1108;-51
2022/10/29 11:17:54;;;;;;;;;;;;;;;20.14;52.98;96387.63;10537735;28;1552;-51
2022/10/29 11:23:30;;;;;;;;;;;;;;;20.15;52.83;96386.59;10515467;28;1891;-51
2022/10/29 11:28:32;;;;;;;;;;;;;;;20.16;53.00;96364.47;10526878;28;1667;-51
2022/10/29 11:33:34;;;;;;;;;;;;;;;20.18;53.03;96365.00;10537768;28;1108;-48
2022/10/29 11:38:39;;;;;;;;;;;;;;;20.18;53.24;96357.91;10535980;28;1958;-48
2022/10/29 11:43:39;;;;;;;;;;;;;;;20.21;53.12;96359.28;10536137;28;1153;-50
2022/10/29 11:48:42;;;;;;;;;;;;;;;20.21;53.09;96357.44;10532657;28;1631;-51
2022/10/29 11:53:51;;;;;;;;;;;;;;;20.23;53.24;96346.66;10527707;28;1615;-52
2022/10/29 11:58:54;;;;;;;;;;;;;;;20.24;53.15;96342.94;10529296;28;1977;-53
2022/10/29 12:04:15;;;;;;;;;;;;;;;20.27;52.97;96339.81;10536654;28;1147;-52
2022/10/29 12:09:32;;;;;;;;;;;;;;;20.30;53.01;96336.66;10533999;28;1615;-50
2022/10/29 12:14:37;;;;;;;;;;;;;;;20.33;53.03;96333.53;10534508;28;1032;-50
2022/10/29 12:19:45;;;;;;;;;;;;;;;20.33;53.05;96320.34;10534297;28;1977;-49
2022/10/29 12:24:45;;;;;;;;;;;;;;;20.35;53.01;96320.88;10534804;28;1679;-50
2022/10/29 12:29:52;;;;;;;;;;;;;;;20.37;53.15;96316.16;10528429;28;1545;-53
2022/10/29 12:35:01;;;;;;;;;;;;;;;20.40;52.86;96310.38;10533293;28;1461;-49
2022/10/29 12:40:03;;;;;;;;;;;;;;;20.48;52.76;96307.25;10533232;28;1963;-48
2022/10/29 12:45:18;;;;;;;;;;;;;;;20.57;52.97;96300.41;10528405;28;1619;-51
2022/10/29 12:50:37;;;;;;;;;;;;;;;20.76;52.39;96296.25;10493904;28;837;-52
2022/10/29 12:55:38;;;;;;;;;;;;;;;21.30;51.16;96286.03;10529780;28;1690;-52
2022/10/29 13:00:47;;;;;;;;;;;;;;;21.70;50.09;96278.03;10535480;28;1964;-52
2022/10/29 13:05:47;;;;;;;;;;;;;;;22.03;49.53;96281.91;10536650;28;1626;-58
2022/10/29 13:10:48;;;;;;;;;;;;;;;22.79;47.52;96281.56;10524545;28;1480;-54
2022/10/29 13:16:01;;;;;;;;;;;;;;;22.72;47.53;96283.72;10533391;28;1619;-51
2022/10/29 13:21:01;;;;;;;;;;;;;;;22.42;47.65;96276.75;10534042;28;1902;-53
2022/10/29 13:26:05;;;;;;;;;;;;;;;22.09;48.51;96270.28;10534840;28;1156;-48
2022/10/29 13:31:05;;;;;;;;;;;;;;;21.91;49.13;96268.22;10537489;28;1599;-49
2022/10/29 13:36:14;;;;;;;;;;;;;;;21.84;49.55;96257.97;10543414;28;1492;-52
2022/10/29 13:41:15;;;;;;;;;;;;;;;21.63;49.80;96259.06;10542905;28;1906;-53
2022/10/29 13:46:24;;;;;;;;;;;;;;;21.49;50.30;96267.78;10533512;28;1608;-50
2022/10/29 13:51:39;;;;;;;;;;;;;;;21.36;50.87;96260.41;10534873;28;1101;-51
2022/10/29 13:57:05;;;;;;;;;;;;;;;21.22;50.93;96264.66;10539657;28;1556;-51
2022/10/29 14:02:12;;;;;;;;;;;;;;;21.11;51.77;96263.06;10540026;28;1914;-51
2022/10/29 14:07:17;;;;;;;;;;;;;;;21.04;51.87;96261.50;10536437;28;1694;-48
2022/10/29 14:12:19;;;;;;;;;;;;;;;20.96;52.03;96258.56;10539749;28;1176;-49
2022/10/29 14:17:19;;;;;;;;;;;;;;;20.88;52.24;96267.78;10541686;28;1599;-51
2022/10/29 14:22:30;;;;;;;;;;;;;;;20.84;52.59;96264.09;10541059;28;1913;-52
2022/10/29 14:27:30;;;;;;;;;;;;;;;20.79;52.43;96264.09;10533447;28;1655;-51
2022/10/29 14:32:33;;;;;;;;;;;;;;;20.76;52.48;96259.34;10541922;28;1104;-50
2022/10/29 14:37:37;;;;;;;;;;;;;;;20.72;52.88;96260.13;10530096;28;1554;-51
2022/10/29 14:42:42;;;;;;;;;;;;;;;20.69;52.70;96258.81;10542856;28;1961;-52
2022/10/29 14:47:46;;;;;;;;;;;;;;;20.67;53.02;96266.19;10532746;28;1670;-51
2022/10/29 14:52:48;;;;;;;;;;;;;;;20.65;52.79;96267.50;10537237;28;1832;-53
2022/10/29 14:57:51;;;;;;;;;;;;;;;20.63;52.90;96267.75;10531357;28;1433;-53
2022/10/29 15:02:52;;;;;;;;;;;;;;;20.61;53.01;96264.59;10538516;28;1967;-53
2022/10/29 15:08:23;;;;;;;;;;;;;;;20.58;53.04;96267.75;10535428;28;1631;-52
2022/10/29 15:13:26;;;;;;;;;;;;;;;20.56;52.97;96269.88;10526567;28;1608;-51
2022/10/29 15:18:26;;;;;;;;;;;;;;;20.55;52.92;96262.19;10538808;28;1960;-54
2022/10/29 15:23:33;;;;;;;;;;;;;;;20.54;53.12;96271.16;10533382;28;1568;-51
2022/10/29 15:28:39;;;;;;;;;;;;;;;20.52;52.93;96260.09;10531355;28;1485;-52
2022/10/29 15:33:39;;;;;;;;;;;;;;;20.52;52.96;96262.75;10537773;28;1179;-51
2022/10/29 15:38:46;;;;;;;;;;;;;;;20.50;53.01;96255.09;10532123;28;2021;-47
2022/10/29 15:43:53;;;;;;;;;;;;;;;20.49;52.85;96258.78;10536238;28;1650;-49
2022/10/29 15:48:53;;;;;;;;;;;;;;;20.48;53.00;96253.78;10537012;28;1105;-50
2022/10/29 15:53:54;;;;;;;;;;;;;;;20.47;53.14;96252.97;10533937;28;1623;-52
2022/10/29 15:58:56;;;;;;;;;;;;;;;20.47;52.97;96252.19;10535550;28;2347;-50
2022/10/29 16:03:56;;;;;;;;;;;;;;;20.45;53.12;96249.81;10536585;28;1135;-52
2022/10/29 16:08:57;;;;;;;;;;;;;;;20.43;52.79;96257.19;10537450;28;1682;-52
2022/10/29 16:13:59;;;;;;;;;;;;;;;20.43;53.15;96254.56;10536342;28;1627;-50
2022/10/29 16:18:59;;;;;;;;;;;;;;;20.43;53.09;96256.38;10533624;28;1898;-51
2022/10/29 16:23:59;;;;;;;;;;;;;;;20.42;52.98;96258.25;10534431;28;1730;-48
2022/10/29 16:28:59;;;;;;;;;;;;;;;20.41;52.80;96261.94;10529062;28;1477;-50
2022/10/29 16:34:01;;;;;;;;;;;;;;;20.41;52.96;96259.28;10535291;28;1163;-49
2022/10/29 16:39:01;;;;;;;;;;;;;;;20.40;52.85;96249.81;10527446;28;1878;-51
2022/10/29 16:44:02;;;;;;;;;;;;;;;20.40;52.90;96256.94;10534381;28;1659;-50
2022/10/29 16:49:02;;;;;;;;;;;;;;;20.39;53.04;96250.88;10535495;28;1155;-50
2022/10/29 16:54:02;;;;;;;;;;;;;;;20.39;53.20;96250.88;10527796;28;1663;-50
2022/10/29 16:59:02;;;;;;;;;;;;;;;20.39;52.95;96258.75;10528421;28;1906;-51
2022/10/29 17:04:03;;;;;;;;;;;;;;;20.38;53.02;96262.44;10545067;28;1163;-51
2022/10/29 17:09:04;;;;;;;;;;;;;;;20.38;53.03;96259.03;10541447;28;1687;-49
2022/10/29 17:14:05;;;;;;;;;;;;;;;20.37;53.25;96255.59;10548843;28;1159;-50
2022/10/29 17:19:07;;;;;;;;;;;;;;;20.37;52.93;96255.59;10511627;28;1906;-53
2022/10/29 17:24:07;;;;;;;;;;;;;;;20.38;53.13;96257.16;10547415;28;1635;-47
2022/10/29 17:29:07;;;;;;;;;;;;;;;20.37;52.88;96255.59;10540914;28;1476;-50
2022/10/29 17:34:08;;;;;;;;;;;;;;;20.37;53.05;96267.97;10547917;28;1092;-52
2022/10/29 17:39:11;;;;;;;;;;;;;;;20.36;52.93;96264.53;10543812;28;2042;-49
2022/10/29 17:44:11;;;;;;;;;;;;;;;20.36;53.22;96269.78;10546623;28;1611;-49
2022/10/29 17:49:12;;;;;;;;;;;;;;;20.36;52.91;96269.78;10547178;28;1187;-51
2022/10/29 17:54:13;;;;;;;;;;;;;;;20.36;53.02;96272.44;10546311;28;1706;-51
2022/10/29 17:59:13;;;;;;;;;;;;;;;20.36;53.02;96269.78;10541087;28;1902;-48
2022/10/29 18:04:13;;;;;;;;;;;;;;;20.36;52.85;96269.03;10547766;28;1155;-49
2022/10/29 18:09:14;;;;;;;;;;;;;;;20.35;52.88;96267.44;10542344;28;1671;-52
2022/10/29 18:14:14;;;;;;;;;;;;;;;20.35;53.12;96268.22;10537450;28;1678;-52
2022/10/29 18:19:14;;;;;;;;;;;;;;;20.35;52.99;96270.06;10540055;28;1898;-53
2022/10/29 18:24:15;;;;;;;;;;;;;;;20.35;52.94;96270.88;10532942;28;1663;-47
2022/10/29 18:29:15;;;;;;;;;;;;;;;20.35;52.83;96262.97;10539250;28;1481;-51
2022/10/29 18:34:16;;;;;;;;;;;;;;;20.34;52.86;96265.88;10538308;28;1111;-51
2022/10/29 18:39:16;;;;;;;;;;;;;;;20.34;52.88;96261.38;10539003;28;1975;-50
2022/10/29 18:44:16;;;;;;;;;;;;;;;20.33;52.64;96257.16;10540198;28;825;-49
2022/10/29 18:49:17;;;;;;;;;;;;;;;20.33;52.85;96254.53;10531918;28;1694;-49
2022/10/29 18:54:18;;;;;;;;;;;;;;;20.34;52.70;96252.69;10540342;28;972;-50
2022/10/29 18:59:18;;;;;;;;;;;;;;;20.34;52.98;96250.84;10532523;28;1902;-48
2022/10/29 19:04:19;;;;;;;;;;;;;;;20.34;52.80;96244.81;10538322;28;1210;-49
2022/10/29 19:09:20;;;;;;;;;;;;;;;20.33;52.85;96249.28;10537403;28;1781;-54
2022/10/29 19:14:20;;;;;;;;;;;;;;;20.33;52.80;96243.22;10539904;28;1106;-49
2022/10/29 19:19:20;;;;;;;;;;;;;;;20.33;52.99;96244.00;10538158;28;1902;-48
2022/10/29 19:24:20;;;;;;;;;;;;;;;20.33;52.81;96230.03;10534992;28;1576;-52
2022/10/29 19:29:21;;;;;;;;;;;;;;;20.33;52.77;96238.75;10535623;28;1485;-51
2022/10/29 19:34:21;;;;;;;;;;;;;;;20.33;52.70;96238.75;10537393;28;1180;-50
2022/10/29 19:39:22;;;;;;;;;;;;;;;20.32;52.63;96231.88;10533398;28;1971;-46
2022/10/29 19:44:22;;;;;;;;;;;;;;;20.32;52.79;96234.50;10532300;28;1690;-53
2022/10/29 19:49:22;;;;;;;;;;;;;;;20.32;52.71;96237.13;10536952;28;1137;-49
2022/10/29 19:54:22;;;;;;;;;;;;;;;20.32;52.85;96234.50;10530884;28;1710;-49
2022/10/29 19:59:23;;;;;;;;;;;;;;;20.33;52.65;96232.69;10535945;28;1906;-48
2022/10/29 20:04:26;;;;;;;;;;;;;;;20.33;52.78;96232.69;10536826;28;1163;-49
2022/10/29 20:09:27;;;;;;;;;;;;;;;20.32;52.73;96223.22;10506743;28;1576;-50
2022/10/29 20:14:27;;;;;;;;;;;;;;;20.32;52.72;96231.88;10535688;28;1674;-49
2022/10/29 20:19:27;;;;;;;;;;;;;;;20.32;52.62;96231.09;10535273;28;1971;-47
2022/10/29 20:24:27;;;;;;;;;;;;;;;20.32;52.62;96225.84;10529886;28;1608;-48
2022/10/29 20:29:28;;;;;;;;;;;;;;;20.32;52.65;96226.59;10539379;28;1484;-50
2022/10/29 20:34:28;;;;;;;;;;;;;;;20.32;52.80;96229.25;10536391;28;1195;-49
2022/10/29 20:39:28;;;;;;;;;;;;;;;20.31;52.67;96224.25;10531073;28;1902;-50
2022/10/29 20:44:28;;;;;;;;;;;;;;;20.31;52.82;96222.41;10531784;28;1635;-48
2022/10/29 20:49:29;;;;;;;;;;;;;;;20.32;52.85;96229.25;10534919;28;1032;-49
2022/10/29 20:54:29;;;;;;;;;;;;;;;20.32;52.66;96229.25;10532003;28;1659;-48
2022/10/29 20:59:29;;;;;;;;;;;;;;;20.30;52.62;96223.44;10528518;28;1902;-51
2022/10/29 21:04:29;;;;;;;;;;;;;;;20.31;52.85;96225.03;10533343;28;1493;-49
2022/10/29 21:09:30;;;;;;;;;;;;;;;20.32;52.65;96228.47;10534418;28;1148;-49
2022/10/29 21:14:30;;;;;;;;;;;;;;;20.31;52.84;96225.03;10533837;28;1698;-50
2022/10/29 21:19:31;;;;;;;;;;;;;;;20.31;52.81;96225.03;10535170;28;1957;-47
2022/10/29 21:24:31;;;;;;;;;;;;;;;20.32;52.54;96221.34;10534402;28;1588;-49
2022/10/29 21:29:31;;;;;;;;;;;;;;;20.31;52.63;96221.63;10538779;28;1457;-48
2022/10/29 21:34:31;;;;;;;;;;;;;;;20.31;52.70;96217.16;10534600;28;1145;-50
2022/10/29 21:39:32;;;;;;;;;;;;;;;20.31;52.63;96218.97;10532152;28;1901;-52
2022/10/29 21:44:33;;;;;;;;;;;;;;;20.31;52.52;96217.16;10534166;28;996;-52
2022/10/29 21:49:33;;;;;;;;;;;;;;;20.30;52.46;96217.41;10531212;28;1732;-52
2022/10/29 21:54:33;;;;;;;;;;;;;;;20.31;52.66;96211.88;10534041;28;1600;-49
2022/10/29 21:59:34;;;;;;;;;;;;;;;20.30;52.51;96214.78;10535290;28;1984;-48
2022/10/29 22:04:34;;;;;;;;;;;;;;;20.31;52.47;96214.50;10541850;28;830;-49
2022/10/29 22:09:34;;;;;;;;;;;;;;;20.31;52.64;96209.25;10539995;28;1651;-51
2022/10/29 22:14:34;;;;;;;;;;;;;;;20.30;52.70;96212.91;10540274;28;1623;-49
2022/10/29 22:19:35;;;;;;;;;;;;;;;20.31;52.43;96211.09;10540537;28;1898;-49
2022/10/29 22:24:35;;;;;;;;;;;;;;;20.30;52.77;96212.91;10538308;28;1812;-48
2022/10/29 22:29:35;;;;;;;;;;;;;;;20.30;52.45;96207.66;10539402;28;1436;-52
2022/10/29 22:34:36;;;;;;;;;;;;;;;20.30;52.70;96201.63;10540382;28;1143;-53
2022/10/29 22:39:36;;;;;;;;;;;;;;;20.31;52.51;96198.72;10537255;28;1901;-50
2022/10/29 22:44:36;;;;;;;;;;;;;;;20.29;52.71;96192.91;10534449;28;1647;-52
2022/10/29 22:49:37;;;;;;;;;;;;;;;20.30;52.43;96194.50;10540367;28;1085;-50
2022/10/29 22:54:37;;;;;;;;;;;;;;;20.30;52.51;96191.09;10538302;28;1659;-52
2022/10/29 22:59:37;;;;;;;;;;;;;;;20.31;52.60;96190.03;10532068;28;1977;-52
2022/10/29 23:04:37;;;;;;;;;;;;;;;20.30;52.38;96189.22;10538692;28;995;-50
2022/10/29 23:09:38;;;;;;;;;;;;;;;20.30;52.39;96183.19;10535352;28;1544;-50
2022/10/29 23:14:43;;;;;;;;;;;;;;;20.31;52.26;96188.19;10538418;28;840;-52
2022/10/29 23:19:43;;;;;;;;;;;;;;;20.29;52.64;96185.03;10534428;28;1982;-50
2022/10/29 23:24:43;;;;;;;;;;;;;;;20.30;52.25;96183.97;10533054;28;1592;-50
2022/10/29 23:29:43;;;;;;;;;;;;;;;20.30;52.58;96176.06;10531680;28;1395;-51
2022/10/29 23:34:44;;;;;;;;;;;;;;;20.31;52.31;96171.59;10537675;28;1145;-46
2022/10/29 23:39:44;;;;;;;;;;;;;;;20.30;52.34;96164.75;10528763;28;1976;-50
2022/10/29 23:44:45;;;;;;;;;;;;;;;20.31;52.29;96161.84;10534269;28;1603;-52
2022/10/29 23:49:45;;;;;;;;;;;;;;;20.30;52.26;96160.25;10536452;28;1291;-54
2022/10/29 23:54:45;;;;;;;;;;;;;;;20.30;52.27;96160.25;10530698;28;1607;-51
2022/10/29 23:59:46;;;;;;;;;;;;;;;20.30;52.42;96155.00;10530593;28;1906;-53
